createdAt,value
2022-10-11T00:00:24.090Z,95261.63
2022-10-11T00:02:26.585Z,95264.44
2022-10-11T00:04:28.255Z,95264.25
2022-10-11T00:06:30.055Z,95266.56
2022-10-11T00:08:35.615Z,95274.00
2022-10-11T00:10:37.255Z,95269.41
2022-10-11T00:12:38.999Z,95269.09
2022-10-11T00:14:40.694Z,95263.84
2022-10-11T00:16:44.532Z,95256.63
2022-10-11T00:18:46.240Z,95266.22
2022-10-11T00:20:48.106Z,95269.19
2022-10-11T00:22:49.869Z,95262.31
2022-10-11T00:24:52.996Z,95263.19
2022-10-11T00:26:54.683Z,95265.66
2022-10-11T00:28:56.359Z,95264.97
2022-10-11T00:30:58.215Z,95255.38
2022-10-11T00:32:59.860Z,95260.00
2022-10-11T00:35:06.221Z,95254.72
2022-10-11T00:37:07.809Z,95254.28
2022-10-11T00:39:09.478Z,95255.44
2022-10-11T00:41:11.933Z,95253.25
2022-10-11T00:43:18.305Z,95256.56
2022-10-11T00:45:32.174Z,95253.91
2022-10-11T00:47:33.850Z,95244.66
2022-10-11T00:49:39.064Z,95249.69
2022-10-11T00:51:43.737Z,95256.66
2022-10-11T00:53:47.264Z,95259.31
2022-10-11T00:55:55.138Z,95255.28
2022-10-11T00:57:57.189Z,95256.59
2022-10-11T00:59:59.038Z,95252.81
2022-10-11T01:02:00.595Z,95255.78
2022-10-11T01:04:02.834Z,95254.34
2022-10-11T01:06:04.993Z,95257.16
2022-10-11T01:08:07.416Z,95256.81
2022-10-11T01:10:09.265Z,95252.38
2022-10-11T01:12:20.555Z,95250.22
2022-10-11T01:14:44.036Z,95254.84
2022-10-11T01:16:58.480Z,95257.28
2022-10-11T01:19:15.034Z,95249.03
2022-10-11T01:21:40.950Z,95247.91
2022-10-11T01:24:04.661Z,95246.84
2022-10-11T01:26:46.706Z,95242.91
2022-10-11T01:29:02.421Z,95249.47
2022-10-11T01:31:46.093Z,95235.47
2022-10-11T01:33:58.249Z,95237.09
2022-10-11T01:36:06.486Z,95241.69
2022-10-11T01:38:34.613Z,95249.06
2022-10-11T01:40:42.068Z,95248.09
2022-10-11T01:42:44.077Z,95242.63
2022-10-11T01:44:47.937Z,95230.59
2022-10-11T01:46:51.780Z,95245.63
2022-10-11T01:48:56.331Z,95249.25
2022-10-11T01:50:58.869Z,95240.34
2022-10-11T01:53:11.148Z,95241.00
2022-10-11T01:55:22.238Z,95248.25
2022-10-11T01:57:41.188Z,95243.63
2022-10-11T02:00:07.481Z,95242.16
2022-10-11T02:02:32.182Z,95240.34
2022-10-11T02:04:36.271Z,95246.31
2022-10-11T02:07:02.048Z,95244.34
2022-10-11T02:09:14.773Z,95242.72
2022-10-11T02:11:26.828Z,95244.72
2022-10-11T02:13:37.728Z,95243.72
2022-10-11T02:15:41.138Z,95244.72
2022-10-11T02:17:47.995Z,95238.44
2022-10-11T02:19:51.956Z,95238.44
2022-10-11T02:21:57.202Z,95233.19
2022-10-11T02:24:20.627Z,95236.84
2022-10-11T02:26:23.760Z,95230.78
2022-10-11T02:28:30.130Z,95238.69
2022-10-11T02:30:32.249Z,95232.09
2022-10-11T02:32:34.667Z,95230.81
2022-10-11T02:34:40.023Z,95230.16
2022-10-11T02:37:09.018Z,95225.19
2022-10-11T02:39:15.684Z,95223.03
2022-10-11T02:41:31.605Z,95226.66
2022-10-11T02:43:43.495Z,95231.28
2022-10-11T02:45:48.466Z,95232.47
2022-10-11T02:47:50.297Z,95232.47
2022-10-11T02:49:52.179Z,95228.00
2022-10-11T02:51:56.359Z,95222.25
2022-10-11T02:53:57.841Z,95224.06
2022-10-11T02:55:59.463Z,95222.41
2022-10-11T02:58:01.490Z,95225.41
2022-10-11T03:00:04.488Z,95226.69
2022-10-11T03:02:06.159Z,95223.91
2022-10-11T03:04:07.902Z,95225.56
2022-10-11T03:06:09.719Z,95225.88
2022-10-11T03:08:12.953Z,95216.00
2022-10-11T03:10:14.747Z,95219.47
2022-10-11T03:12:16.409Z,95216.66
2022-10-11T03:14:18.136Z,95219.31
2022-10-11T03:16:19.839Z,95218.94
2022-10-11T03:18:21.959Z,95210.38
2022-10-11T03:20:23.946Z,95213.03
2022-10-11T03:22:25.637Z,95210.91
2022-10-11T03:24:27.394Z,95209.91
2022-10-11T03:26:29.075Z,95208.09
2022-10-11T03:28:30.736Z,95210.56
2022-10-11T03:30:32.831Z,95214.69
2022-10-11T03:32:34.682Z,95217.16
2022-10-11T03:34:36.336Z,95211.03
2022-10-11T03:36:38.190Z,95216.66
2022-10-11T03:38:39.943Z,95208.25
2022-10-11T03:40:42.801Z,95207.22
2022-10-11T03:42:44.477Z,95213.34
2022-10-11T03:44:46.156Z,95208.25
2022-10-11T03:46:47.786Z,95210.72
2022-10-11T03:48:49.395Z,95211.56
2022-10-11T03:51:00.080Z,95209.06
2022-10-11T03:53:01.686Z,95198.22
2022-10-11T03:55:03.665Z,95200.84
2022-10-11T03:57:05.322Z,95191.63
2022-10-11T03:59:06.954Z,95195.75
2022-10-11T04:01:09.053Z,95197.59
2022-10-11T04:03:10.758Z,95194.78
2022-10-11T04:05:12.739Z,95200.06
2022-10-11T04:07:14.404Z,95199.06
2022-10-11T04:09:15.979Z,95200.22
2022-10-11T04:11:17.614Z,95207.31
2022-10-11T04:13:19.177Z,95201.69
2022-10-11T04:15:20.767Z,95201.88
2022-10-11T04:17:22.434Z,95206.00
2022-10-11T04:19:24.152Z,95202.72
2022-10-11T04:21:25.742Z,95203.72
2022-10-11T04:23:27.630Z,95205.66
2022-10-11T04:25:29.296Z,95202.03
2022-10-11T04:27:30.899Z,95203.66
2022-10-11T04:29:33.031Z,95198.59
2022-10-11T04:31:34.660Z,95196.16
2022-10-11T04:33:36.272Z,95200.25
2022-10-11T04:35:37.922Z,95201.41
2022-10-11T04:37:39.545Z,95203.38
2022-10-11T04:39:41.327Z,95200.56
2022-10-11T04:41:42.985Z,95202.06
2022-10-11T04:43:44.562Z,95199.06
2022-10-11T04:45:46.748Z,95200.22
2022-10-11T04:47:48.665Z,95198.22
2022-10-11T04:49:50.316Z,95207.44
2022-10-11T04:51:52.019Z,95213.22
2022-10-11T04:53:53.922Z,95203.78
2022-10-11T04:56:01.255Z,95208.56
2022-10-11T04:58:03.359Z,95204.44
2022-10-11T05:00:05.613Z,95198.19
2022-10-11T05:02:07.256Z,95200.47
2022-10-11T05:04:09.052Z,95202.59
2022-10-11T05:06:11.154Z,95205.88
2022-10-11T05:08:13.081Z,95209.16
2022-10-11T05:10:15.094Z,95213.09
2022-10-11T05:12:16.658Z,95205.84
2022-10-11T05:14:18.281Z,95208.13
2022-10-11T05:16:19.980Z,95214.69
2022-10-11T05:18:21.755Z,95206.94
2022-10-11T05:20:23.465Z,95215.38
2022-10-11T05:22:25.188Z,95215.56
2022-10-11T05:24:26.884Z,95213.75
2022-10-11T05:26:28.906Z,95220.97
2022-10-11T05:28:30.777Z,95224.72
2022-10-11T05:30:32.553Z,95225.19
2022-10-11T05:32:34.182Z,95230.31
2022-10-11T05:34:35.783Z,95233.47
2022-10-11T05:36:37.403Z,95230.13
2022-10-11T05:38:39.502Z,95232.75
2022-10-11T05:40:41.109Z,95242.16
2022-10-11T05:42:42.792Z,95250.53
2022-10-11T05:44:44.655Z,95241.81
2022-10-11T05:46:46.327Z,95238.19
2022-10-11T05:48:48.032Z,95240.75
2022-10-11T05:50:49.977Z,95232.63
2022-10-11T05:52:51.574Z,95231.97
2022-10-11T05:54:53.268Z,95220.66
2022-10-11T05:56:54.825Z,95218.00
2022-10-11T05:59:01.351Z,95217.97
2022-10-11T06:01:04.223Z,95222.69
2022-10-11T06:03:07.889Z,95238.97
2022-10-11T06:05:09.657Z,95227.00
2022-10-11T06:07:11.407Z,95217.41
2022-10-11T06:09:13.312Z,95208.94
2022-10-11T06:11:17.782Z,95215.75
2022-10-11T06:13:19.434Z,95214.91
2022-10-11T06:15:20.997Z,95215.91
2022-10-11T06:17:23.876Z,95218.78
2022-10-11T06:19:25.765Z,95217.50
2022-10-11T06:21:27.477Z,95212.69
2022-10-11T06:23:29.329Z,95200.44
2022-10-11T06:25:31.201Z,95208.75
2022-10-11T06:27:32.784Z,95221.16
2022-10-11T06:29:35.425Z,95224.94
2022-10-11T06:31:37.180Z,95228.88
2022-10-11T06:33:39.089Z,95226.41
2022-10-11T06:35:40.629Z,95227.03
2022-10-11T06:37:42.301Z,95234.63
2022-10-11T06:39:43.940Z,95239.75
2022-10-11T06:41:45.856Z,95243.03
2022-10-11T06:43:49.565Z,95239.53
2022-10-11T06:45:51.051Z,95238.56
2022-10-11T06:47:52.666Z,95240.38
2022-10-11T06:49:54.588Z,95248.75
2022-10-11T06:51:56.220Z,95252.41
2022-10-11T06:53:59.177Z,95253.72
2022-10-11T06:56:11.580Z,95253.81
2022-10-11T06:58:13.189Z,95261.06
2022-10-11T07:00:15.333Z,95259.69
2022-10-11T07:02:16.971Z,95260.81
2022-10-11T07:04:18.530Z,95260.28
2022-10-11T07:06:22.735Z,95264.69
2022-10-11T07:08:24.364Z,95260.03
2022-10-11T07:10:26.081Z,95259.72
2022-10-11T07:12:28.911Z,95255.47
2022-10-11T07:14:30.540Z,95241.72
2022-10-11T07:16:32.151Z,95240.47
2022-10-11T07:18:34.145Z,95242.84
2022-10-11T07:20:35.944Z,95239.34
2022-10-11T07:22:37.589Z,95244.53
2022-10-11T07:24:39.745Z,95253.44
2022-10-11T07:26:42.458Z,95260.84
2022-10-11T07:28:44.754Z,95269.72
2022-10-11T07:30:46.585Z,95255.81
2022-10-11T07:32:48.326Z,95263.84
2022-10-11T07:34:50.030Z,95255.22
2022-10-11T07:36:51.603Z,95257.47
2022-10-11T07:38:53.425Z,95252.81
2022-10-11T07:40:55.137Z,95256.03
2022-10-11T07:42:58.155Z,95253.28
2022-10-11T07:44:59.791Z,95256.88
2022-10-11T07:47:01.345Z,95255.69
2022-10-11T07:49:02.950Z,95257.59
2022-10-11T07:51:17.090Z,95264.22
2022-10-11T07:53:18.577Z,95258.53
2022-10-11T07:55:20.135Z,95258.47
2022-10-11T07:57:22.016Z,95260.88
2022-10-11T07:59:23.653Z,95261.78
2022-10-11T08:01:26.614Z,95263.34
2022-10-11T08:03:28.588Z,95252.50
2022-10-11T08:05:30.784Z,95254.44
2022-10-11T08:07:32.426Z,95250.03
2022-10-11T08:09:34.061Z,95250.19
2022-10-11T08:11:37.508Z,95252.41
2022-10-11T08:13:39.518Z,95254.16
2022-10-11T08:15:41.358Z,95260.84
2022-10-11T08:17:43.001Z,95258.69
2022-10-11T08:19:44.654Z,95267.75
2022-10-11T08:21:46.475Z,95269.63
2022-10-11T08:23:48.181Z,95265.31
2022-10-11T08:25:49.787Z,95265.59
2022-10-11T08:27:51.447Z,95273.53
2022-10-11T08:29:53.070Z,95272.44
2022-10-11T08:31:54.690Z,95273.16
2022-10-11T08:33:56.502Z,95270.81
2022-10-11T08:35:58.486Z,95270.09
2022-10-11T08:38:00.070Z,95269.94
2022-10-11T08:40:03.430Z,95279.31
2022-10-11T08:42:19.640Z,95268.06
2022-10-11T08:44:58.405Z,95275.81
2022-10-11T08:47:20.956Z,95268.13
2022-10-11T08:49:25.249Z,95262.38
2022-10-11T08:51:43.209Z,95268.50
2022-10-11T08:53:59.274Z,95264.00
2022-10-11T08:56:04.475Z,95270.88
2022-10-11T08:58:06.457Z,95264.88
2022-10-11T09:00:14.656Z,95271.44
2022-10-11T09:03:09.562Z,95269.56
2022-10-11T09:05:15.998Z,95261.19
2022-10-11T09:07:22.723Z,95264.44
2022-10-11T09:10:02.895Z,95264.56
2022-10-11T09:12:18.903Z,95259.81
2022-10-11T09:14:39.021Z,95261.03
2022-10-11T09:16:55.829Z,95257.53
2022-10-11T09:19:28.477Z,95256.13
2022-10-11T09:21:42.942Z,95262.81
2022-10-11T09:24:23.937Z,95257.34
2022-10-11T09:26:38.007Z,95257.94
2022-10-11T09:28:51.083Z,95256.84
2022-10-11T09:30:55.118Z,95256.16
2022-10-11T09:33:03.548Z,95247.53
2022-10-11T09:35:24.490Z,95246.72
2022-10-11T09:37:33.666Z,95247.06
2022-10-11T09:39:45.230Z,95251.88
2022-10-11T09:41:58.885Z,95255.22
2022-10-11T09:44:00.504Z,95248.47
2022-10-11T09:46:02.364Z,95248.13
2022-10-11T09:48:05.884Z,95242.44
2022-10-11T09:50:15.148Z,95237.78
2022-10-11T09:52:19.364Z,95236.41
2022-10-11T09:54:27.350Z,95233.56
2022-10-11T09:56:30.528Z,95230.91
2022-10-11T09:58:35.249Z,95238.22
2022-10-11T10:00:36.941Z,95237.84
2022-10-11T10:02:42.675Z,95237.25
2022-10-11T10:05:10.317Z,95238.53
2022-10-11T10:07:13.162Z,95228.31
2022-10-11T10:09:24.300Z,95231.22
2022-10-11T10:11:26.093Z,95229.66
2022-10-11T10:13:51.077Z,95224.44
2022-10-11T10:15:56.066Z,95234.91
2022-10-11T10:17:58.310Z,95230.91
2022-10-11T10:20:00.695Z,95227.91
2022-10-11T10:22:02.415Z,95221.44
2022-10-11T10:24:08.911Z,95230.94
2022-10-11T10:26:13.768Z,95223.94
2022-10-11T10:28:22.449Z,95211.63
2022-10-11T10:30:24.973Z,95212.81
2022-10-11T10:32:32.270Z,95209.28
2022-10-11T10:34:35.991Z,95206.59
2022-10-11T10:36:37.453Z,95215.09
2022-10-11T10:38:56.867Z,95206.50
2022-10-11T10:41:11.089Z,95205.28
2022-10-11T10:43:17.273Z,95205.69
2022-10-11T10:45:21.849Z,95201.94
2022-10-11T10:47:40.879Z,95200.22
2022-10-11T10:49:55.221Z,95193.56
2022-10-11T10:52:09.340Z,95194.06
2022-10-11T10:54:25.416Z,95192.63
2022-10-11T10:56:46.821Z,95186.34
2022-10-11T10:59:29.886Z,95186.06
2022-10-11T11:01:45.738Z,95180.72
2022-10-11T11:04:25.812Z,95180.78
2022-10-11T11:06:35.742Z,95178.84
2022-10-11T11:09:15.841Z,95178.97
2022-10-11T11:11:38.846Z,95172.66
2022-10-11T11:13:49.499Z,95177.63
2022-10-11T11:16:10.690Z,95173.06
2022-10-11T11:19:23.453Z,95170.13
2022-10-11T11:21:31.093Z,95166.72
2022-10-11T11:23:46.389Z,95171.94
2022-10-11T11:26:10.524Z,95169.59
2022-10-11T11:28:17.243Z,95170.56
2022-10-11T11:30:41.062Z,95172.59
2022-10-11T11:33:16.343Z,95170.94
2022-10-11T11:35:48.814Z,95160.03
2022-10-11T11:38:00.157Z,95154.97
2022-10-11T11:40:43.665Z,95153.06
2022-10-11T11:42:50.917Z,95154.72
2022-10-11T11:44:53.136Z,95153.41
2022-10-11T11:47:05.041Z,95150.22
2022-10-11T11:49:13.432Z,95146.84
2022-10-11T11:51:30.591Z,95147.19
2022-10-11T11:54:02.862Z,95150.91
2022-10-11T11:56:26.891Z,95146.97
2022-10-11T11:58:49.617Z,95149.22
2022-10-11T12:01:01.462Z,95143.75
2022-10-11T12:03:09.988Z,95142.44
2022-10-11T12:05:15.157Z,95139.44
2022-10-11T12:07:23.110Z,95145.78
2022-10-11T12:09:24.965Z,95137.38
2022-10-11T12:11:33.147Z,95142.94
2022-10-11T12:13:38.353Z,95142.81
2022-10-11T12:15:40.103Z,95138.28
2022-10-11T12:17:57.186Z,95142.50
2022-10-11T12:20:13.444Z,95147.22
2022-10-11T12:22:27.218Z,95137.25
2022-10-11T12:24:58.465Z,95136.63
2022-10-11T12:27:36.573Z,95139.41
2022-10-11T12:29:47.541Z,95128.28
2022-10-11T12:32:32.042Z,95136.16
2022-10-11T12:34:43.075Z,95140.72
2022-10-11T12:36:49.338Z,95135.16
2022-10-11T12:39:18.667Z,95129.59
2022-10-11T12:41:38.485Z,95121.31
2022-10-11T12:43:49.211Z,95133.69
2022-10-11T12:45:51.154Z,95134.53
2022-10-11T12:48:01.643Z,95127.75
2022-10-11T12:50:29.357Z,95122.72
2022-10-11T12:52:42.772Z,95125.00
2022-10-11T12:54:53.516Z,95120.16
2022-10-11T12:57:23.093Z,95124.41
2022-10-11T12:59:25.081Z,95121.59
2022-10-11T13:01:29.527Z,95119.34
2022-10-11T13:03:35.369Z,95121.81
2022-10-11T13:05:49.742Z,95124.09
2022-10-11T13:07:56.130Z,95123.78
2022-10-11T13:09:58.053Z,95119.16
2022-10-11T13:12:08.921Z,95119.84
2022-10-11T13:14:16.376Z,95123.09
2022-10-11T13:16:21.446Z,95127.38
2022-10-11T13:18:25.221Z,95128.63
2022-10-11T13:20:31.109Z,95121.75
2022-10-11T13:22:35.660Z,95129.13
2022-10-11T13:24:39.998Z,95128.75
2022-10-11T13:26:43.497Z,95124.09
2022-10-11T13:28:45.246Z,95125.34
2022-10-11T13:30:49.794Z,95126.38
2022-10-11T13:32:52.216Z,95123.09
2022-10-11T13:35:01.312Z,95118.78
2022-10-11T13:37:02.980Z,95118.41
2022-10-11T13:39:04.828Z,95117.00
2022-10-11T13:41:09.081Z,95122.09
2022-10-11T13:43:12.549Z,95119.06
2022-10-11T13:45:16.693Z,95124.19
2022-10-11T13:47:21.402Z,95120.97
2022-10-11T13:49:37.432Z,95122.38
2022-10-11T13:51:39.381Z,95125.00
2022-10-11T13:54:00.695Z,95122.94
2022-10-11T13:56:08.210Z,95121.28
2022-10-11T13:58:18.772Z,95126.81
2022-10-11T14:00:24.112Z,95124.34
2022-10-11T14:02:26.516Z,95119.66
2022-10-11T14:04:29.941Z,95113.34
2022-10-11T14:06:38.845Z,95118.63
2022-10-11T14:08:48.597Z,95121.91
2022-10-11T14:10:55.644Z,95118.63
2022-10-11T14:13:00.499Z,95123.94
2022-10-11T14:15:05.957Z,95115.34
2022-10-11T14:17:10.626Z,95117.38
2022-10-11T14:19:12.601Z,95122.91
2022-10-11T14:21:23.061Z,95123.09
2022-10-11T14:23:24.861Z,95121.84
2022-10-11T14:25:26.752Z,95118.94
2022-10-11T14:27:28.781Z,95111.75
2022-10-11T14:29:38.871Z,95110.94
2022-10-11T14:31:42.141Z,95115.19
2022-10-11T14:33:44.109Z,95110.09
2022-10-11T14:35:45.734Z,95113.38
2022-10-11T14:37:47.778Z,95109.72
2022-10-11T14:39:49.617Z,95115.38
2022-10-11T14:41:52.092Z,95116.59
2022-10-11T14:43:56.421Z,95110.84
2022-10-11T14:45:58.278Z,95111.06
2022-10-11T14:47:59.883Z,95118.75
2022-10-11T14:50:02.664Z,95116.09
2022-10-11T14:52:07.489Z,95110.00
2022-10-11T14:54:11.190Z,95119.97
2022-10-11T14:56:21.096Z,95120.34
2022-10-11T14:58:23.260Z,95120.09
2022-10-11T15:00:28.248Z,95124.75
2022-10-11T15:02:29.871Z,95127.63
2022-10-11T15:04:31.689Z,95124.97
2022-10-11T15:06:34.660Z,95124.91
2022-10-11T15:08:36.253Z,95120.81
2022-10-11T15:10:39.944Z,95119.34
2022-10-11T15:12:41.517Z,95123.41
2022-10-11T15:14:43.145Z,95119.13
2022-10-11T15:16:44.737Z,95124.78
2022-10-11T15:18:51.143Z,95119.25
2022-10-11T15:20:54.982Z,95117.97
2022-10-11T15:22:57.171Z,95124.94
2022-10-11T15:25:00.280Z,95121.25
2022-10-11T15:27:01.891Z,95127.75
2022-10-11T15:29:03.765Z,95123.66
2022-10-11T15:31:05.408Z,95124.47
2022-10-11T15:33:06.999Z,95125.28
2022-10-11T15:35:08.937Z,95126.69
2022-10-11T15:37:10.597Z,95127.88
2022-10-11T15:39:32.682Z,95128.06
2022-10-11T15:41:34.293Z,95126.78
2022-10-11T15:43:35.864Z,95128.16
2022-10-11T15:45:37.465Z,95129.38
2022-10-11T15:47:39.342Z,95127.13
2022-10-11T15:49:40.898Z,95121.38
2022-10-11T15:51:42.653Z,95122.75
2022-10-11T15:53:44.716Z,95126.75
2022-10-11T15:55:51.601Z,95133.06
2022-10-11T15:57:53.217Z,95124.09
2022-10-11T15:59:54.871Z,95128.97
2022-10-11T16:01:57.227Z,95131.41
2022-10-11T16:03:58.927Z,95133.41
2022-10-11T16:06:05.170Z,95141.91
2022-10-11T16:08:07.787Z,95143.91
2022-10-11T16:10:09.644Z,95133.72
2022-10-11T16:12:11.328Z,95143.09
2022-10-11T16:14:12.917Z,95141.09
2022-10-11T16:16:14.610Z,95142.09
2022-10-11T16:18:18.460Z,95146.56
2022-10-11T16:20:24.661Z,95140.28
2022-10-11T16:22:26.933Z,95147.41
2022-10-11T16:24:28.581Z,95152.88
2022-10-11T16:26:30.183Z,95145.56
2022-10-11T16:28:32.404Z,95149.41
2022-10-11T16:30:35.368Z,95149.41
2022-10-11T16:32:36.900Z,95152.69
2022-10-11T16:34:38.757Z,95154.50
2022-10-11T16:36:40.953Z,95155.34
2022-10-11T16:38:42.577Z,95156.50
2022-10-11T16:40:44.278Z,95155.06
2022-10-11T16:42:46.854Z,95156.44
2022-10-11T16:44:48.427Z,95158.34
2022-10-11T16:46:50.201Z,95161.19
2022-10-11T16:48:55.252Z,95161.19
2022-10-11T16:51:05.428Z,95161.94
2022-10-11T16:53:07.153Z,95156.81
2022-10-11T16:55:09.235Z,95156.66
2022-10-11T16:57:11.846Z,95163.22
2022-10-11T16:59:13.542Z,95158.75
2022-10-11T17:01:15.400Z,95155.28
2022-10-11T17:03:17.049Z,95160.75
2022-10-11T17:05:18.717Z,95158.91
2022-10-11T17:07:21.577Z,95164.75
2022-10-11T17:09:23.282Z,95170.44
2022-10-11T17:11:24.998Z,95170.22
2022-10-11T17:13:26.721Z,95170.22
2022-10-11T17:15:30.444Z,95161.00
2022-10-11T17:17:31.889Z,95168.31
2022-10-11T17:19:34.071Z,95169.31
2022-10-11T17:21:35.691Z,95170.13
2022-10-11T17:23:37.788Z,95164.66
2022-10-11T17:25:43.523Z,95172.06
2022-10-11T17:27:45.117Z,95171.88
2022-10-11T17:29:46.705Z,95169.22
2022-10-11T17:31:49.471Z,95169.22
2022-10-11T17:33:53.159Z,95172.59
2022-10-11T17:35:55.517Z,95166.41
2022-10-11T17:37:57.170Z,95172.88
2022-10-11T17:39:58.821Z,95158.84
2022-10-11T17:42:05.031Z,95167.22
2022-10-11T17:44:06.680Z,95166.22
2022-10-11T17:46:09.342Z,95163.41
2022-10-11T17:48:11.059Z,95169.31
2022-10-11T17:50:12.732Z,95169.97
2022-10-11T17:52:14.296Z,95172.44
2022-10-11T17:54:16.746Z,95179.50
2022-10-11T17:56:27.795Z,95179.16
2022-10-11T17:58:30.476Z,95177.97
2022-10-11T18:00:32.135Z,95181.44
2022-10-11T18:02:33.829Z,95174.94
2022-10-11T18:04:35.493Z,95178.22
2022-10-11T18:06:39.426Z,95184.00
2022-10-11T18:08:41.886Z,95176.06
2022-10-11T18:10:47.463Z,95184.63
2022-10-11T18:12:53.349Z,95185.66
2022-10-11T18:14:54.949Z,95185.00
2022-10-11T18:16:56.905Z,95185.09
2022-10-11T18:18:59.226Z,95182.72
2022-10-11T18:21:01.336Z,95188.19
2022-10-11T18:23:02.961Z,95185.09
2022-10-11T18:25:04.917Z,95175.50
2022-10-11T18:27:06.505Z,95183.44
2022-10-11T18:29:08.180Z,95182.16
2022-10-11T18:31:13.876Z,95187.00
2022-10-11T18:33:16.432Z,95190.47
2022-10-11T18:35:18.054Z,95186.38
2022-10-11T18:37:19.677Z,95183.72
2022-10-11T18:39:22.012Z,95180.44
2022-10-11T18:41:25.130Z,95186.28
2022-10-11T18:43:26.928Z,95186.28
2022-10-11T18:45:28.546Z,95174.88
2022-10-11T18:47:30.209Z,95183.44
2022-10-11T18:49:31.812Z,95187.91
2022-10-11T18:51:36.813Z,95187.91
2022-10-11T18:53:38.662Z,95179.97
2022-10-11T18:55:40.297Z,95181.97
2022-10-11T18:57:42.179Z,95177.22
2022-10-11T18:59:43.769Z,95182.69
2022-10-11T19:01:45.488Z,95179.22
2022-10-11T19:03:49.756Z,95185.53
2022-10-11T19:05:51.345Z,95186.34
2022-10-11T19:07:52.909Z,95178.78
2022-10-11T19:09:54.562Z,95186.59
2022-10-11T19:11:57.501Z,95178.88
2022-10-11T19:14:08.490Z,95192.72
2022-10-11T19:16:15.280Z,95182.16
2022-10-11T19:18:20.363Z,95191.88
2022-10-11T19:20:22.195Z,95190.78
2022-10-11T19:22:23.890Z,95196.88
2022-10-11T19:24:27.615Z,95191.44
2022-10-11T19:26:31.375Z,95195.53
2022-10-11T19:28:33.575Z,95197.53
2022-10-11T19:30:35.188Z,95198.88
2022-10-11T19:32:36.766Z,95198.06
2022-10-11T19:34:38.452Z,95198.72
2022-10-11T19:36:43.368Z,95198.72
2022-10-11T19:38:46.874Z,95207.28
2022-10-11T19:40:48.511Z,95199.16
2022-10-11T19:42:50.356Z,95197.53
2022-10-11T19:44:52.070Z,95204.00
2022-10-11T19:46:53.683Z,95197.91
2022-10-11T19:48:55.360Z,95202.72
2022-10-11T19:51:08.691Z,95208.72
2022-10-11T19:53:10.252Z,95206.88
2022-10-11T19:55:11.878Z,95211.81
2022-10-11T19:57:13.454Z,95213.94
2022-10-11T19:59:15.466Z,95210.38
2022-10-11T20:01:19.985Z,95206.75
2022-10-11T20:03:21.734Z,95221.78
2022-10-11T20:05:23.305Z,95213.00
2022-10-11T20:07:24.950Z,95213.66
2022-10-11T20:09:30.858Z,95210.75
2022-10-11T20:11:32.750Z,95221.94
2022-10-11T20:13:35.635Z,95220.94
2022-10-11T20:15:38.201Z,95221.41
2022-10-11T20:17:48.772Z,95213.50
2022-10-11T20:19:50.408Z,95220.59
2022-10-11T20:21:52.231Z,95220.13
2022-10-11T20:23:57.709Z,95215.66
2022-10-11T20:26:04.389Z,95209.94
2022-10-11T20:28:06.010Z,95218.03
2022-10-11T20:30:08.025Z,95207.28
2022-10-11T20:32:09.664Z,95216.19
2022-10-11T20:34:11.628Z,95215.38
2022-10-11T20:36:15.889Z,95215.56
2022-10-11T20:38:17.485Z,95213.56
2022-10-11T20:40:19.641Z,95218.84
2022-10-11T20:42:21.245Z,95214.75
2022-10-11T20:44:23.024Z,95214.91
2022-10-11T20:46:27.972Z,95216.25
2022-10-11T20:48:30.183Z,95220.94
2022-10-11T20:50:31.753Z,95215.44
2022-10-11T20:52:33.633Z,95222.94
2022-10-11T20:54:37.080Z,95218.47
2022-10-11T20:56:38.915Z,95227.53
2022-10-11T20:58:41.417Z,95223.41
2022-10-11T21:00:43.632Z,95229.22
2022-10-11T21:02:45.206Z,95231.06
2022-10-11T21:04:47.139Z,95230.03
2022-10-11T21:06:49.003Z,95227.59
2022-10-11T21:08:50.573Z,95230.41
2022-10-11T21:10:53.570Z,95232.22
2022-10-11T21:12:55.644Z,95223.28
2022-10-11T21:14:57.337Z,95225.28
2022-10-11T21:16:58.889Z,95221.19
2022-10-11T21:19:01.703Z,95220.38
2022-10-11T21:21:12.282Z,95220.00
2022-10-11T21:23:14.710Z,95223.50
2022-10-11T21:25:16.374Z,95219.38
2022-10-11T21:27:18.015Z,95215.75
2022-10-11T21:29:19.629Z,95212.94
2022-10-11T21:31:22.543Z,95210.28
2022-10-11T21:33:24.203Z,95214.56
2022-10-11T21:35:27.241Z,95217.19
2022-10-11T21:37:28.810Z,95214.94
2022-10-11T21:39:30.502Z,95205.50
2022-10-11T21:41:33.982Z,95213.63
2022-10-11T21:43:38.120Z,95210.34
2022-10-11T21:45:39.829Z,95210.16
2022-10-11T21:47:43.685Z,95211.16
2022-10-11T21:49:45.341Z,95211.00
2022-10-11T21:51:47.019Z,95215.44
2022-10-11T21:53:48.635Z,95214.44
2022-10-11T21:55:57.225Z,95214.28
2022-10-11T21:57:59.003Z,95215.91
2022-10-11T22:00:00.611Z,95210.63
2022-10-11T22:02:02.392Z,95206.69
2022-10-11T22:04:05.075Z,95206.69
2022-10-11T22:06:06.685Z,95206.91
2022-10-11T22:08:08.307Z,95205.88
2022-10-11T22:10:10.034Z,95207.88
2022-10-11T22:12:11.604Z,95201.47
2022-10-11T22:14:13.144Z,95204.53
2022-10-11T22:16:15.117Z,95207.06
2022-10-11T22:18:16.841Z,95201.13
2022-10-11T22:20:18.446Z,95205.22
2022-10-11T22:22:20.044Z,95200.78
2022-10-11T22:24:21.680Z,95197.97
2022-10-11T22:26:25.753Z,95200.47
2022-10-11T22:28:27.659Z,95203.13
2022-10-11T22:30:29.521Z,95204.28
2022-10-11T22:32:31.159Z,95207.31
2022-10-11T22:34:33.399Z,95201.47
2022-10-11T22:36:35.117Z,95207.44
2022-10-11T22:38:37.629Z,95208.59
2022-10-11T22:40:42.321Z,95205.97
2022-10-11T22:42:44.389Z,95214.38
2022-10-11T22:44:46.062Z,95212.81
2022-10-11T22:46:47.750Z,95214.50
2022-10-11T22:48:49.366Z,95215.13
2022-10-11T22:50:51.469Z,95212.31
2022-10-11T22:52:53.036Z,95219.25
2022-10-11T22:54:54.622Z,95225.34
2022-10-11T22:56:56.440Z,95220.88
2022-10-11T22:58:59.381Z,95225.16
2022-10-11T23:01:12.135Z,95221.72
2022-10-11T23:03:15.271Z,95228.63
2022-10-11T23:05:16.911Z,95226.22
2022-10-11T23:07:18.655Z,95224.59
2022-10-11T23:09:20.353Z,95229.91
2022-10-11T23:11:21.981Z,95230.25
2022-10-11T23:13:23.605Z,95233.38
2022-10-11T23:15:25.274Z,95233.19
2022-10-11T23:17:26.894Z,95224.16
2022-10-11T23:19:28.617Z,95229.13
2022-10-11T23:21:30.190Z,95226.34
2022-10-11T23:23:31.827Z,95227.19
2022-10-11T23:25:33.597Z,95219.56
2022-10-11T23:27:35.500Z,95224.34
2022-10-11T23:29:40.969Z,95226.13
2022-10-11T23:31:42.573Z,95222.78
2022-10-11T23:33:45.220Z,95230.34
2022-10-11T23:35:47.037Z,95229.19
2022-10-11T23:37:48.840Z,95228.19
2022-10-11T23:39:50.480Z,95227.84
2022-10-11T23:41:52.079Z,95222.41
2022-10-11T23:43:53.791Z,95219.94
2022-10-11T23:45:55.928Z,95223.22
2022-10-11T23:47:57.515Z,95223.22
2022-10-11T23:49:59.146Z,95222.22
2022-10-11T23:52:00.816Z,95225.03
2022-10-11T23:54:02.826Z,95223.88
2022-10-11T23:56:05.649Z,95222.03
2022-10-11T23:58:07.247Z,95222.84
